createdAt,value
2022-12-11T00:00:45.193Z,13.52
2022-12-11T00:03:15.925Z,14.18
2022-12-11T00:05:43.885Z,15.95
2022-12-11T00:08:11.457Z,15.38
2022-12-11T00:10:38.469Z,15.63
2022-12-11T00:13:05.415Z,16.52
2022-12-11T00:15:32.052Z,17.08
2022-12-11T00:17:58.600Z,15.07
2022-12-11T00:20:25.082Z,12.07
2022-12-11T00:22:51.578Z,13.88
2022-12-11T00:25:18.225Z,15.18
2022-12-11T00:27:46.589Z,12.35
2022-12-11T00:30:14.546Z,12.95
2022-12-11T00:32:41.036Z,12.23
2022-12-11T00:35:08.355Z,14.07
2022-12-11T00:37:35.197Z,14.25
2022-12-11T00:40:01.734Z,12.60
2022-12-11T00:42:28.285Z,15.23
2022-12-11T00:44:56.249Z,13.75
2022-12-11T00:47:22.804Z,20.67
2022-12-11T00:49:50.107Z,14.45
2022-12-11T00:52:17.824Z,15.93
2022-12-11T00:54:44.895Z,16.38
2022-12-11T00:57:11.369Z,14.00
2022-12-11T00:59:37.919Z,16.83
2022-12-11T01:02:04.462Z,14.82
2022-12-11T01:04:31.083Z,12.93
2022-12-11T01:06:57.657Z,11.52
2022-12-11T01:09:42.813Z,18.85
2022-12-11T01:12:09.236Z,14.18
2022-12-11T01:14:35.706Z,14.35
2022-12-11T01:17:02.215Z,12.80
2022-12-11T01:19:28.755Z,14.00
2022-12-11T01:21:55.222Z,11.20
2022-12-11T01:24:21.657Z,15.38
2022-12-11T01:26:48.095Z,12.00
2022-12-11T01:29:15.253Z,15.18
2022-12-11T01:31:41.703Z,14.90
2022-12-11T01:34:08.277Z,12.95
2022-12-11T01:36:34.708Z,17.83
2022-12-11T01:39:01.200Z,17.08
2022-12-11T01:41:27.771Z,12.95
2022-12-11T01:44:07.478Z,14.15
2022-12-11T01:46:36.553Z,14.90
2022-12-11T01:49:07.533Z,16.27
2022-12-11T01:51:40.949Z,14.30
2022-12-11T01:54:11.078Z,15.75
2022-12-11T01:56:40.484Z,16.15
2022-12-11T01:59:09.351Z,18.40
2022-12-11T02:01:47.889Z,19.13
2022-12-11T02:04:15.818Z,12.13
2022-12-11T02:06:48.065Z,18.23
2022-12-11T02:09:23.785Z,16.27
2022-12-11T02:12:12.355Z,14.93
2022-12-11T02:14:49.462Z,15.93
2022-12-11T02:17:28.777Z,15.38
2022-12-11T02:20:04.447Z,18.02
2022-12-11T02:25:53.410Z,14.95
2022-12-11T02:28:33.450Z,14.48
2022-12-11T02:31:20.507Z,18.20
2022-12-11T02:34:01.187Z,17.00
2022-12-11T02:36:31.057Z,17.48
2022-12-11T02:39:00.962Z,22.63
2022-12-11T02:41:29.606Z,21.58
2022-12-11T02:43:58.461Z,22.05
2022-12-11T02:46:26.110Z,20.08
2022-12-11T02:48:54.080Z,22.33
2022-12-11T02:51:25.837Z,20.80
2022-12-11T02:53:56.294Z,19.98
2022-12-11T02:56:29.257Z,18.97
2022-12-11T02:59:01.133Z,20.80
2022-12-11T03:01:27.700Z,20.02
2022-12-11T03:03:55.763Z,17.88
2022-12-11T03:06:29.217Z,20.55
2022-12-11T03:08:55.717Z,16.67
2022-12-11T03:11:22.217Z,19.00
2022-12-11T03:13:48.866Z,22.05
2022-12-11T03:16:33.797Z,20.67
2022-12-11T03:19:18.908Z,16.92
2022-12-11T03:21:53.564Z,18.30
2022-12-11T03:24:27.484Z,16.92
2022-12-11T03:27:00.993Z,20.17
2022-12-11T03:29:34.808Z,17.30
2022-12-11T03:32:10.492Z,32.55
2022-12-11T03:37:14.365Z,16.25
2022-12-11T03:39:47.044Z,15.57
2022-12-11T03:42:15.634Z,18.00
2022-12-11T03:44:46.444Z,17.40
2022-12-11T03:47:18.051Z,21.65
2022-12-11T03:49:47.217Z,22.40
2022-12-11T03:52:15.555Z,18.60
2022-12-11T03:54:45.710Z,18.67
2022-12-11T03:57:16.432Z,16.50
2022-12-11T03:59:42.871Z,19.83
2022-12-11T04:02:10.720Z,22.08
2022-12-11T04:04:38.687Z,14.02
2022-12-11T04:07:05.318Z,20.13
2022-12-11T04:09:32.199Z,14.02
2022-12-11T04:11:58.826Z,14.38
2022-12-11T04:14:44.306Z,17.90
2022-12-11T04:17:10.782Z,20.80
2022-12-11T04:19:55.918Z,18.48
2022-12-11T04:22:57.497Z,17.55
2022-12-11T04:25:23.976Z,20.15
2022-12-11T04:27:50.517Z,19.48
2022-12-11T04:30:26.936Z,21.27
2022-12-11T04:32:56.317Z,17.25
2022-12-11T04:35:23.463Z,20.45
2022-12-11T04:37:50.287Z,20.07
2022-12-11T04:40:18.799Z,19.13
2022-12-11T04:42:45.489Z,18.35
2022-12-11T04:45:12.581Z,19.33
2022-12-11T04:47:40.880Z,23.57
2022-12-11T04:50:10.119Z,16.00
2022-12-11T04:52:36.726Z,19.67
2022-12-11T04:55:07.393Z,23.13
2022-12-11T04:57:34.259Z,23.77
2022-12-11T05:00:00.810Z,24.48
2022-12-11T05:02:27.335Z,19.75
2022-12-11T05:04:53.860Z,22.98
2022-12-11T05:07:20.352Z,18.60
2022-12-11T05:09:46.846Z,22.58
2022-12-11T05:12:13.296Z,18.00
2022-12-11T05:14:39.735Z,17.58
2022-12-11T05:17:06.172Z,18.88
2022-12-11T05:19:32.701Z,19.00
2022-12-11T05:21:59.265Z,18.57
2022-12-11T05:24:25.734Z,22.13
2022-12-11T05:26:52.182Z,17.02
2022-12-11T05:29:18.630Z,18.15
2022-12-11T05:31:45.163Z,18.75
2022-12-11T05:34:11.807Z,19.58
2022-12-11T05:36:38.555Z,23.90
2022-12-11T05:39:05.178Z,19.42
2022-12-11T05:41:32.657Z,17.08
2022-12-11T05:43:59.289Z,20.13
2022-12-11T05:46:29.149Z,19.77
2022-12-11T05:48:58.208Z,20.90
2022-12-11T05:51:24.731Z,21.48
2022-12-11T05:53:53.361Z,24.02
2022-12-11T05:56:22.965Z,16.60
2022-12-11T05:58:50.387Z,19.20
2022-12-11T06:01:20.599Z,17.58
2022-12-11T06:03:47.470Z,26.58
2022-12-11T06:06:14.517Z,17.50
2022-12-11T06:08:41.140Z,20.25
2022-12-11T06:11:08.227Z,22.50
2022-12-11T06:13:35.337Z,19.98
2022-12-11T06:16:06.328Z,19.02
2022-12-11T06:18:37.017Z,22.13
2022-12-11T06:21:14.333Z,19.08
2022-12-11T06:23:41.485Z,21.25
2022-12-11T06:26:08.934Z,20.75
2022-12-11T06:28:35.401Z,21.55
2022-12-11T06:31:02.179Z,18.13
2022-12-11T06:33:28.709Z,17.83
2022-12-11T06:35:55.168Z,23.95
2022-12-11T06:38:21.615Z,19.73
2022-12-11T06:40:56.051Z,18.02
2022-12-11T06:43:22.549Z,22.92
2022-12-11T06:45:49.109Z,18.10
2022-12-11T06:48:15.661Z,20.90
2022-12-11T06:50:42.145Z,20.15
2022-12-11T06:53:10.103Z,38.83
2022-12-11T06:55:36.977Z,42.72
2022-12-11T06:58:04.110Z,35.65
2022-12-11T07:00:30.802Z,24.55
2022-12-11T07:02:57.481Z,21.77
2022-12-11T07:05:23.950Z,20.75
2022-12-11T07:07:53.438Z,20.20
2022-12-11T07:10:20.368Z,22.23
2022-12-11T07:12:46.858Z,28.05
2022-12-11T07:15:13.601Z,26.13
2022-12-11T07:17:40.342Z,19.08
2022-12-11T07:20:07.336Z,19.88
2022-12-11T07:22:33.782Z,19.83
2022-12-11T07:25:00.323Z,20.87
2022-12-11T07:27:26.848Z,19.02
2022-12-11T07:29:54.914Z,20.85
2022-12-11T07:32:21.899Z,19.35
2022-12-11T07:34:51.967Z,22.43
2022-12-11T07:37:18.723Z,18.33
2022-12-11T07:39:45.147Z,23.20
2022-12-11T07:42:11.589Z,22.38
2022-12-11T07:44:38.045Z,23.45
2022-12-11T07:47:04.524Z,22.30
2022-12-11T07:49:30.986Z,23.37
2022-12-11T07:51:57.460Z,21.30
2022-12-11T07:54:24.912Z,25.08
2022-12-11T07:56:53.758Z,21.02
2022-12-11T07:59:21.053Z,24.48
2022-12-11T08:01:47.595Z,22.98
2022-12-11T08:04:15.624Z,27.52
2022-12-11T08:06:43.085Z,28.70
2022-12-11T08:09:17.473Z,27.30
2022-12-11T08:11:51.633Z,22.97
2022-12-11T08:14:19.393Z,24.27
2022-12-11T08:16:46.145Z,31.27
2022-12-11T08:19:13.233Z,23.02
2022-12-11T08:21:40.270Z,22.73
2022-12-11T08:24:08.185Z,23.52
2022-12-11T08:26:34.635Z,29.02
2022-12-11T08:29:01.557Z,24.77
2022-12-11T08:31:28.569Z,23.23
2022-12-11T08:33:56.866Z,22.25
2022-12-11T08:36:23.684Z,23.27
2022-12-11T08:38:50.795Z,23.13
2022-12-11T08:41:22.989Z,30.25
2022-12-11T08:43:52.798Z,21.52
2022-12-11T08:46:19.535Z,25.20
2022-12-11T08:48:46.180Z,25.55
2022-12-11T08:51:15.081Z,26.60
2022-12-11T08:53:42.629Z,23.55
2022-12-11T08:56:19.104Z,27.00
2022-12-11T08:58:46.349Z,24.92
2022-12-11T09:01:18.074Z,30.60
2022-12-11T09:06:36.435Z,25.08
2022-12-11T09:09:04.652Z,29.58
2022-12-11T09:11:34.941Z,28.25
2022-12-11T09:14:07.994Z,22.20
2022-12-11T09:16:37.961Z,25.52
2022-12-11T09:19:06.511Z,24.65
2022-12-11T09:21:32.977Z,18.23
2022-12-11T09:24:01.464Z,18.45
2022-12-11T09:26:29.293Z,21.00
2022-12-11T09:29:00.261Z,23.02
2022-12-11T09:31:31.908Z,18.40
2022-12-11T09:34:02.218Z,20.08
2022-12-11T09:36:30.082Z,23.88
2022-12-11T09:39:03.615Z,19.55
2022-12-11T09:45:24.550Z,24.35
2022-12-11T09:48:14.102Z,25.65
2022-12-11T09:51:19.102Z,19.13
2022-12-11T09:57:25.418Z,18.23
2022-12-11T10:00:38.627Z,16.05
2022-12-11T10:04:08.848Z,18.45
2022-12-11T10:07:14.932Z,14.82
2022-12-11T10:10:07.136Z,14.35
2022-12-11T10:12:49.590Z,17.38
2022-12-11T10:15:35.282Z,21.63
2022-12-11T10:18:05.496Z,18.20
2022-12-11T10:20:39.477Z,19.33
2022-12-11T10:23:19.901Z,16.65
2022-12-11T10:26:04.638Z,16.77
2022-12-11T10:28:36.935Z,16.77
2022-12-11T10:31:32.160Z,15.80
2022-12-11T10:34:35.261Z,19.27
2022-12-11T10:37:13.413Z,27.58
2022-12-11T10:39:50.387Z,16.92
2022-12-11T10:42:33.708Z,16.45
2022-12-11T10:45:10.491Z,15.13
2022-12-11T10:47:42.605Z,15.95
2022-12-11T10:50:27.098Z,16.02
2022-12-11T10:53:01.675Z,15.77
2022-12-11T10:55:45.204Z,22.35
2022-12-11T10:58:25.862Z,12.73
2022-12-11T11:01:07.802Z,17.88
2022-12-11T11:03:53.530Z,15.68
2022-12-11T11:06:26.321Z,16.65
2022-12-11T11:09:02.120Z,24.83
2022-12-11T11:11:36.383Z,19.63
2022-12-11T11:14:20.968Z,21.35
2022-12-11T11:16:53.279Z,14.88
2022-12-11T11:19:43.783Z,21.80
2022-12-11T11:22:18.324Z,19.02
2022-12-11T11:25:09.860Z,17.95
2022-12-11T11:27:49.456Z,19.77
2022-12-11T11:30:42.017Z,20.77
2022-12-11T11:33:24.273Z,19.75
2022-12-11T11:36:08.034Z,22.50
2022-12-11T11:38:50.785Z,19.05
2022-12-11T11:41:57.115Z,19.85
2022-12-11T11:45:07.999Z,21.10
2022-12-11T11:47:42.902Z,14.77
2022-12-11T11:50:22.167Z,17.63
2022-12-11T11:52:57.197Z,21.15
2022-12-11T11:55:37.418Z,19.17
2022-12-11T11:58:16.833Z,20.67
2022-12-11T12:00:43.549Z,17.38
2022-12-11T12:03:16.566Z,17.65
2022-12-11T12:06:15.509Z,16.65
2022-12-11T12:09:00.485Z,18.70
2022-12-11T12:11:41.250Z,15.15
2022-12-11T12:18:01.137Z,17.63
2022-12-11T12:20:53.262Z,17.33
2022-12-11T12:23:54.643Z,18.55
2022-12-11T12:26:33.968Z,23.20
2022-12-11T12:29:18.828Z,17.75
2022-12-11T12:32:08.307Z,15.60
2022-12-11T12:35:00.030Z,11.35
2022-12-11T12:37:57.195Z,17.40
2022-12-11T12:40:30.771Z,16.13
2022-12-11T12:43:06.445Z,16.33
2022-12-11T12:46:06.846Z,15.95
2022-12-11T12:48:43.605Z,19.38
2022-12-11T12:51:18.923Z,23.17
2022-12-11T12:56:25.782Z,16.35
2022-12-11T12:58:52.236Z,15.77
2022-12-11T13:01:21.771Z,28.20
2022-12-11T13:04:05.643Z,15.70
2022-12-11T13:06:42.789Z,17.85
2022-12-11T13:09:19.346Z,24.52
2022-12-11T13:11:50.008Z,16.67
2022-12-11T13:14:16.409Z,19.30
2022-12-11T13:16:45.193Z,17.65
2022-12-11T13:19:23.738Z,19.52
2022-12-11T13:22:20.225Z,15.75
2022-12-11T13:27:40.137Z,17.92
2022-12-11T13:30:16.305Z,19.45
2022-12-11T13:32:57.279Z,20.90
2022-12-11T13:35:31.249Z,15.57
2022-12-11T13:38:07.464Z,18.15
2022-12-11T13:40:40.113Z,18.92
2022-12-11T13:43:20.446Z,17.20
2022-12-11T13:45:52.074Z,19.70
2022-12-11T13:48:39.570Z,15.80
2022-12-11T13:51:09.692Z,16.80
2022-12-11T13:53:36.821Z,17.77
2022-12-11T13:56:07.404Z,15.25
2022-12-11T13:58:38.606Z,17.23
2022-12-11T14:01:30.543Z,17.00
2022-12-11T14:04:17.488Z,29.65
2022-12-11T14:06:46.718Z,76.55
2022-12-11T14:09:20.558Z,76.22
2022-12-11T14:11:53.522Z,87.97
2022-12-11T14:14:41.396Z,113.72
2022-12-11T14:17:27.397Z,162.05
2022-12-11T14:19:58.885Z,289.35
2022-12-11T14:22:29.480Z,472.45
2022-12-11T14:25:05.187Z,166.10
2022-12-11T14:27:32.208Z,283.02
2022-12-11T14:30:11.309Z,218.45
2022-12-11T14:32:44.664Z,34.65
2022-12-11T14:35:28.623Z,257.83
2022-12-11T14:37:58.242Z,103.65
2022-12-11T14:40:38.501Z,186.68
2022-12-11T14:43:11.938Z,27.38
2022-12-11T14:45:46.633Z,22.45
2022-12-11T14:48:20.491Z,22.67
2022-12-11T14:50:51.370Z,22.25
2022-12-11T14:53:26.107Z,21.23
2022-12-11T14:55:53.088Z,17.60
2022-12-11T14:58:23.004Z,20.23
2022-12-11T15:01:27.513Z,22.08
2022-12-11T15:04:15.870Z,19.58
2022-12-11T15:06:46.067Z,21.58
2022-12-11T15:09:18.485Z,21.75
2022-12-11T15:11:47.026Z,18.05
2022-12-11T15:14:14.070Z,16.63
2022-12-11T15:16:42.033Z,19.13
2022-12-11T15:19:18.406Z,15.55
2022-12-11T15:21:44.908Z,21.38
2022-12-11T15:24:32.872Z,15.88
2022-12-11T15:27:01.081Z,19.90
2022-12-11T15:29:39.464Z,18.38
2022-12-11T15:32:08.854Z,20.13
2022-12-11T15:34:43.819Z,18.05
2022-12-11T15:37:31.809Z,14.95
2022-12-11T15:40:01.515Z,16.50
2022-12-11T15:42:35.170Z,19.58
2022-12-11T15:45:03.207Z,16.60
2022-12-11T15:47:30.942Z,16.70
2022-12-11T15:50:07.208Z,15.77
2022-12-11T15:52:34.448Z,14.55
2022-12-11T15:55:00.985Z,17.50
2022-12-11T15:57:27.506Z,19.45
2022-12-11T15:59:55.253Z,16.55
2022-12-11T16:02:24.051Z,23.00
2022-12-11T16:04:50.706Z,29.27
2022-12-11T16:07:19.951Z,24.77
2022-12-11T16:09:47.104Z,30.25
2022-12-11T16:12:14.255Z,24.67
2022-12-11T16:14:45.678Z,28.45
2022-12-11T16:17:14.970Z,26.48
2022-12-11T16:19:43.000Z,30.60
2022-12-11T16:22:10.597Z,20.45
2022-12-11T16:24:37.592Z,27.67
2022-12-11T16:27:04.893Z,30.90
2022-12-11T16:29:40.374Z,22.23
2022-12-11T16:32:08.298Z,25.42
2022-12-11T16:34:37.148Z,31.52
2022-12-11T16:37:05.006Z,31.45
2022-12-11T16:39:31.710Z,27.10
2022-12-11T16:41:58.282Z,25.65
2022-12-11T16:44:26.635Z,22.75
2022-12-11T16:46:54.357Z,33.33
2022-12-11T16:49:21.623Z,29.90
2022-12-11T16:51:51.520Z,34.25
2022-12-11T16:54:18.429Z,40.95
2022-12-11T16:56:45.211Z,28.88
2022-12-11T16:59:12.812Z,34.63
2022-12-11T17:01:39.495Z,24.05
2022-12-11T17:04:06.072Z,22.88
2022-12-11T17:06:32.861Z,29.38
2022-12-11T17:08:59.473Z,26.48
2022-12-11T17:11:26.152Z,24.55
2022-12-11T17:13:57.198Z,26.10
2022-12-11T17:16:26.007Z,32.58
2022-12-11T17:18:53.212Z,31.60
2022-12-11T17:21:20.992Z,31.65
2022-12-11T17:23:48.806Z,34.85
2022-12-11T17:26:16.427Z,24.20
2022-12-11T17:28:43.505Z,26.08
2022-12-11T17:31:14.643Z,34.95
2022-12-11T17:33:41.384Z,32.00
2022-12-11T17:36:08.846Z,30.73
2022-12-11T17:38:36.377Z,44.45
2022-12-11T17:41:07.565Z,29.98
2022-12-11T17:43:34.323Z,31.05
2022-12-11T17:46:00.859Z,36.45
2022-12-11T17:48:27.960Z,41.15
2022-12-11T17:50:54.488Z,36.63
2022-12-11T17:53:22.054Z,29.15
2022-12-11T17:55:51.549Z,31.00
2022-12-11T17:58:21.705Z,29.45
2022-12-11T18:00:51.268Z,29.98
2022-12-11T18:03:18.523Z,31.40
2022-12-11T18:05:48.340Z,40.17
2022-12-11T18:08:19.210Z,32.83
2022-12-11T18:10:45.663Z,33.13
2022-12-11T18:13:13.068Z,27.90
2022-12-11T18:15:41.786Z,36.15
2022-12-11T18:18:09.208Z,25.92
2022-12-11T18:20:37.300Z,28.80
2022-12-11T18:23:05.036Z,26.60
2022-12-11T18:25:31.786Z,30.15
2022-12-11T18:27:59.605Z,25.35
2022-12-11T18:30:26.207Z,30.00
2022-12-11T18:32:52.700Z,28.30
2022-12-11T18:35:19.394Z,29.23
2022-12-11T18:37:46.129Z,37.05
2022-12-11T18:40:12.609Z,40.03
2022-12-11T18:42:39.079Z,41.33
2022-12-11T18:45:06.832Z,41.20
2022-12-11T18:47:33.366Z,33.78
2022-12-11T18:50:05.595Z,39.92
2022-12-11T18:52:33.876Z,34.70
2022-12-11T18:55:00.474Z,50.28
2022-12-11T18:57:26.955Z,43.20
2022-12-11T18:59:53.526Z,41.80
2022-12-11T19:02:21.149Z,38.47
2022-12-11T19:04:47.933Z,40.75
2022-12-11T19:07:14.463Z,43.72
2022-12-11T19:09:46.233Z,117.93
2022-12-11T19:12:14.519Z,48.47
2022-12-11T19:14:41.024Z,36.65
2022-12-11T19:17:07.618Z,43.53
2022-12-11T19:19:35.918Z,51.75
2022-12-11T19:22:03.493Z,38.05
2022-12-11T19:24:30.177Z,42.38
2022-12-11T19:26:56.910Z,37.25
2022-12-11T19:29:27.958Z,42.90
2022-12-11T19:31:55.661Z,45.47
2022-12-11T19:34:23.538Z,47.50
2022-12-11T19:36:50.494Z,41.13
2022-12-11T19:39:17.465Z,40.42
2022-12-11T19:41:43.925Z,43.13
2022-12-11T19:44:10.778Z,39.20
2022-12-11T19:46:37.588Z,40.63
2022-12-11T19:49:05.013Z,38.83
2022-12-11T19:51:36.325Z,31.95
2022-12-11T19:54:03.023Z,38.35
2022-12-11T19:56:30.523Z,41.20
2022-12-11T19:58:57.231Z,41.42
2022-12-11T20:01:28.696Z,46.85
2022-12-11T20:03:57.976Z,36.40
2022-12-11T20:06:26.484Z,38.10
2022-12-11T20:08:52.973Z,33.20
2022-12-11T20:11:19.666Z,33.95
2022-12-11T20:13:47.661Z,35.85
2022-12-11T20:16:15.901Z,31.92
2022-12-11T20:18:42.991Z,38.92
2022-12-11T20:21:13.022Z,28.15
2022-12-11T20:23:41.769Z,38.70
2022-12-11T20:26:09.389Z,36.10
2022-12-11T20:28:36.067Z,34.20
2022-12-11T20:31:08.692Z,37.40
2022-12-11T20:33:35.728Z,36.67
2022-12-11T20:36:09.907Z,38.30
2022-12-11T20:38:37.408Z,35.47
2022-12-11T20:41:05.054Z,31.42
2022-12-11T20:43:32.930Z,33.42
2022-12-11T20:46:00.093Z,33.83
2022-12-11T20:48:26.723Z,38.35
2022-12-11T20:50:53.228Z,32.63
2022-12-11T20:53:20.552Z,33.22
2022-12-11T20:55:47.027Z,30.70
2022-12-11T20:58:13.533Z,33.38
2022-12-11T21:00:40.347Z,34.72
2022-12-11T21:03:07.049Z,30.00
2022-12-11T21:05:33.499Z,44.53
2022-12-11T21:08:00.128Z,33.35
2022-12-11T21:10:26.662Z,35.70
2022-12-11T21:12:53.147Z,39.55
2022-12-11T21:15:19.614Z,39.42
2022-12-11T21:17:47.200Z,35.63
2022-12-11T21:20:13.721Z,37.80
2022-12-11T21:22:40.256Z,33.55
2022-12-11T21:25:06.901Z,36.25
2022-12-11T21:27:33.723Z,37.70
2022-12-11T21:30:00.269Z,32.75
2022-12-11T21:32:27.372Z,36.85
2022-12-11T21:34:56.916Z,41.75
2022-12-11T21:37:23.439Z,36.60
2022-12-11T21:39:49.894Z,37.40
2022-12-11T21:42:16.638Z,37.08
2022-12-11T21:47:29.788Z,31.83
2022-12-11T21:49:56.330Z,34.50
2022-12-11T21:52:22.893Z,26.98
2022-12-11T21:54:49.446Z,34.95
2022-12-11T21:57:18.969Z,33.95
2022-12-11T21:59:49.089Z,35.83
2022-12-11T22:02:15.619Z,33.47
2022-12-11T22:04:42.267Z,34.38
2022-12-11T22:07:08.834Z,35.05
2022-12-11T22:09:35.370Z,33.08
2022-12-11T22:12:01.913Z,29.10
2022-12-11T22:14:30.692Z,34.72
2022-12-11T22:16:59.222Z,37.80
2022-12-11T22:19:32.158Z,36.20
2022-12-11T22:21:59.113Z,37.03
2022-12-11T22:24:25.588Z,34.90
2022-12-11T22:26:53.487Z,41.00
2022-12-11T22:29:19.949Z,39.88
2022-12-11T22:31:46.579Z,33.35
2022-12-11T22:34:13.070Z,33.72
2022-12-11T22:36:39.526Z,34.30
2022-12-11T22:39:06.059Z,33.03
2022-12-11T22:41:33.039Z,55.47
2022-12-11T22:43:59.987Z,43.20
2022-12-11T22:46:29.724Z,60.35
2022-12-11T22:48:57.539Z,39.25
2022-12-11T22:51:24.089Z,34.10
2022-12-11T22:53:50.949Z,36.50
2022-12-11T22:56:17.471Z,40.30
2022-12-11T22:58:44.051Z,41.17
2022-12-11T23:01:13.887Z,29.35
2022-12-11T23:03:40.806Z,33.78
2022-12-11T23:06:09.306Z,33.42
2022-12-11T23:08:36.128Z,40.13
2022-12-11T23:11:10.024Z,34.72
2022-12-11T23:13:36.520Z,38.55
2022-12-11T23:16:03.232Z,32.95
2022-12-11T23:18:29.765Z,34.58
2022-12-11T23:20:56.298Z,38.65
2022-12-11T23:23:22.761Z,30.58
2022-12-11T23:25:49.399Z,36.88
2022-12-11T23:28:15.956Z,30.42
2022-12-11T23:30:42.552Z,35.17
2022-12-11T23:33:09.252Z,40.78
2022-12-11T23:35:35.728Z,31.50
2022-12-11T23:38:02.830Z,34.42
2022-12-11T23:40:29.284Z,38.53
2022-12-11T23:42:55.762Z,41.17
2022-12-11T23:45:22.306Z,38.50
2022-12-11T23:47:49.109Z,40.97
2022-12-11T23:50:15.755Z,36.25
2022-12-11T23:52:42.423Z,38.88
2022-12-11T23:55:10.334Z,38.50
2022-12-11T23:57:37.781Z,46.67
